createdAt,value
2019-05-14T00:05:09.344Z,5.90
2019-05-14T00:07:41.348Z,5.90
2019-05-14T00:10:11.878Z,5.90
2019-05-14T00:12:42.101Z,5.90
2019-05-14T00:15:12.896Z,5.80
2019-05-14T00:17:43.262Z,5.80
2019-05-14T00:20:14.340Z,5.80
2019-05-14T00:22:44.465Z,5.80
2019-05-14T00:25:14.411Z,5.80
2019-05-14T00:27:46.571Z,5.70
2019-05-14T00:30:34.804Z,5.70
2019-05-14T00:33:07.972Z,5.60
2019-05-14T00:35:37.841Z,5.60
2019-05-14T00:38:12.416Z,5.60
2019-05-14T00:40:44.275Z,5.60
2019-05-14T00:43:14.645Z,5.60
2019-05-14T00:45:46.915Z,5.70
2019-05-14T00:48:17.082Z,5.60
2019-05-14T00:50:51.429Z,5.60
2019-05-14T00:53:21.492Z,5.60
2019-05-14T00:55:52.184Z,5.50
2019-05-14T00:58:22.295Z,5.50
2019-05-14T01:00:52.736Z,5.50
2019-05-14T01:03:22.683Z,5.50
2019-05-14T01:05:52.817Z,5.50
2019-05-14T01:08:23.110Z,5.60
2019-05-14T01:10:53.225Z,5.50
2019-05-14T01:13:22.948Z,5.60
2019-05-14T01:15:52.909Z,5.50
2019-05-14T01:18:23.329Z,5.50
2019-05-14T01:20:53.338Z,5.50
2019-05-14T01:23:23.627Z,5.50
2019-05-14T01:25:53.813Z,5.50
2019-05-14T01:28:23.860Z,5.50
2019-05-14T01:30:54.100Z,5.50
2019-05-14T01:33:24.309Z,5.40
2019-05-14T01:35:54.154Z,5.40
2019-05-14T01:38:24.445Z,5.40
2019-05-14T01:40:54.691Z,5.40
2019-05-14T01:43:24.773Z,5.40
2019-05-14T01:45:54.924Z,5.40
2019-05-14T01:48:25.370Z,5.30
2019-05-14T01:50:55.275Z,5.40
2019-05-14T01:53:25.323Z,5.40
2019-05-14T01:55:55.225Z,5.30
2019-05-14T01:58:25.184Z,5.30
2019-05-14T02:00:55.175Z,5.30
2019-05-14T02:03:24.957Z,5.30
2019-05-14T02:05:54.864Z,5.30
2019-05-14T02:08:24.848Z,5.30
2019-05-14T02:10:54.916Z,5.30
2019-05-14T02:13:24.699Z,5.30
2019-05-14T02:15:54.703Z,5.30
2019-05-14T02:18:24.814Z,5.30
2019-05-14T02:20:54.732Z,5.20
2019-05-14T02:23:26.364Z,5.20
2019-05-14T02:25:56.369Z,5.20
2019-05-14T02:28:26.370Z,5.20
2019-05-14T02:31:01.884Z,5.20
2019-05-14T02:33:30.670Z,5.20
2019-05-14T02:36:00.457Z,5.20
2019-05-14T02:38:30.545Z,5.20
2019-05-14T02:41:00.856Z,5.20
2019-05-14T02:43:31.031Z,5.10
2019-05-14T02:46:12.041Z,5.20
2019-05-14T02:48:33.838Z,5.20
2019-05-14T02:51:04.486Z,5.10
2019-05-14T02:53:34.377Z,5.20
2019-05-14T02:56:04.490Z,5.20
2019-05-14T02:58:35.535Z,5.10
2019-05-14T03:01:05.690Z,5.10
2019-05-14T03:03:39.809Z,5.10
2019-05-14T03:06:09.553Z,5.10
2019-05-14T03:08:40.110Z,5.00
2019-05-14T03:11:09.585Z,5.00
2019-05-14T03:13:40.331Z,5.00
2019-05-14T03:16:22.515Z,4.90
2019-05-14T03:18:42.699Z,4.80
2019-05-14T03:21:14.185Z,4.80
2019-05-14T03:23:44.115Z,4.80
2019-05-14T03:26:14.182Z,4.90
2019-05-14T03:28:44.137Z,4.90
2019-05-14T03:31:33.812Z,4.80
2019-05-14T03:34:13.688Z,4.80
2019-05-14T03:36:43.441Z,4.80
2019-05-14T03:39:29.489Z,4.80
2019-05-14T03:41:59.370Z,4.80
2019-05-14T03:44:29.419Z,4.90
2019-05-14T03:47:04.639Z,4.90
2019-05-14T03:49:31.533Z,4.90
2019-05-14T03:52:01.642Z,4.90
2019-05-14T03:54:31.918Z,4.80
2019-05-14T03:57:02.240Z,4.90
2019-05-14T03:59:32.781Z,4.90
2019-05-14T04:02:03.197Z,4.90
2019-05-14T04:04:33.303Z,5.00
2019-05-14T04:07:05.392Z,5.00
2019-05-14T04:09:36.017Z,5.10
2019-05-14T04:12:10.195Z,5.10
2019-05-14T04:14:43.636Z,5.10
2019-05-14T04:17:30.893Z,5.10
2019-05-14T04:19:50.722Z,5.20
2019-05-14T04:22:24.238Z,5.20
2019-05-14T04:24:59.448Z,5.20
2019-05-14T04:27:30.687Z,5.20
2019-05-14T04:30:02.646Z,5.20
2019-05-14T04:32:32.858Z,5.20
2019-05-14T04:35:03.392Z,5.20
2019-05-14T04:37:33.752Z,5.20
2019-05-14T04:40:05.324Z,5.30
2019-05-14T04:42:35.142Z,5.30
2019-05-14T04:45:10.543Z,5.60
2019-05-14T04:47:42.029Z,7.10
2019-05-14T04:50:10.971Z,8.20
2019-05-14T04:52:42.652Z,10.60
2019-05-14T04:55:13.066Z,10.50
2019-05-14T04:57:43.016Z,12.30
2019-05-14T05:00:13.667Z,13.60
2019-05-14T05:02:43.734Z,14.10
2019-05-14T05:05:14.188Z,14.90
2019-05-14T05:07:48.936Z,14.90
2019-05-14T05:10:19.263Z,15.50
2019-05-14T05:12:49.946Z,16.00
2019-05-14T05:15:31.434Z,14.40
2019-05-14T05:21:28.383Z,13.00
2019-05-14T05:24:01.087Z,12.00
2019-05-14T05:26:31.268Z,12.00
2019-05-14T05:29:06.482Z,12.70
2019-05-14T05:31:33.585Z,12.90
2019-05-14T05:34:03.791Z,11.10
2019-05-14T05:36:33.947Z,9.80
2019-05-14T05:39:05.239Z,9.10
2019-05-14T05:41:35.328Z,8.90
2019-05-14T05:44:08.279Z,8.00
2019-05-14T05:46:39.133Z,8.20
2019-05-14T05:49:31.967Z,8.30
2019-05-14T05:51:41.055Z,12.20
2019-05-14T05:54:11.212Z,13.70
2019-05-14T05:56:42.433Z,10.70
2019-05-14T05:59:12.502Z,12.30
2019-05-14T06:01:46.486Z,14.50
2019-05-14T06:04:20.881Z,14.80
2019-05-14T06:06:50.926Z,11.40
2019-05-14T06:11:52.216Z,16.70
2019-05-14T06:14:22.399Z,16.90
2019-05-14T06:16:53.982Z,19.40
2019-05-14T06:19:23.809Z,18.10
2019-05-14T06:21:53.594Z,18.20
2019-05-14T06:24:23.817Z,18.00
2019-05-14T06:26:53.538Z,19.30
2019-05-14T06:29:32.379Z,19.30
2019-05-14T06:32:02.595Z,17.00
2019-05-14T06:34:33.789Z,16.40
2019-05-14T06:37:08.579Z,14.80
2019-05-14T06:39:58.551Z,13.50
2019-05-14T06:42:30.391Z,13.30
2019-05-14T06:45:00.708Z,13.70
2019-05-14T06:47:30.759Z,14.00
2019-05-14T06:50:00.935Z,15.80
2019-05-14T06:52:32.533Z,15.10
2019-05-14T06:55:08.692Z,15.70
2019-05-14T06:57:43.800Z,16.20
2019-05-14T07:00:13.932Z,18.40
2019-05-14T07:02:44.953Z,18.70
2019-05-14T07:05:15.183Z,19.70
2019-05-14T07:07:45.284Z,19.20
2019-05-14T07:10:16.576Z,18.30
2019-05-14T07:12:49.905Z,18.30
2019-05-14T07:15:23.037Z,19.20
2019-05-14T07:17:58.446Z,19.00
2019-05-14T07:20:28.506Z,19.80
2019-05-14T07:23:02.694Z,20.90
2019-05-14T07:25:33.313Z,19.80
2019-05-14T07:28:03.531Z,18.40
2019-05-14T07:30:39.523Z,19.40
2019-05-14T07:33:09.449Z,19.90
2019-05-14T07:35:39.935Z,18.60
2019-05-14T07:38:10.182Z,19.30
2019-05-14T07:40:44.142Z,19.70
2019-05-14T07:43:18.944Z,20.80
2019-05-14T07:45:49.323Z,18.30
2019-05-14T07:48:19.634Z,16.50
2019-05-14T07:50:52.032Z,16.50
2019-05-14T07:53:33.979Z,17.10
2019-05-14T07:55:53.964Z,16.40
2019-05-14T07:58:24.172Z,17.10
2019-05-14T08:00:55.446Z,18.10
2019-05-14T08:03:25.526Z,17.30
2019-05-14T08:05:55.501Z,16.70
2019-05-14T08:08:25.170Z,16.50
2019-05-14T08:10:56.294Z,16.10
2019-05-14T08:13:28.279Z,16.40
2019-05-14T08:15:59.829Z,16.10
2019-05-14T08:18:29.769Z,15.60
2019-05-14T08:21:00.766Z,16.20
2019-05-14T08:23:30.436Z,15.10
2019-05-14T08:26:03.688Z,14.90
2019-05-14T08:28:38.171Z,14.10
2019-05-14T08:31:09.417Z,14.30
2019-05-14T08:33:40.785Z,13.60
2019-05-14T08:36:10.452Z,12.20
2019-05-14T08:38:40.517Z,13.10
2019-05-14T08:41:10.258Z,13.50
2019-05-14T08:43:43.126Z,14.40
2019-05-14T08:46:12.807Z,14.50
2019-05-14T08:48:42.802Z,13.60
2019-05-14T08:51:13.172Z,13.30
2019-05-14T08:53:49.695Z,13.40
2019-05-14T08:56:38.845Z,12.80
2019-05-14T08:59:08.719Z,12.30
2019-05-14T09:01:55.944Z,12.90
2019-05-14T09:04:13.656Z,12.40
2019-05-14T09:06:43.747Z,12.40
2019-05-14T09:09:14.406Z,12.00
2019-05-14T09:11:46.422Z,12.60
2019-05-14T09:14:18.695Z,12.90
2019-05-14T09:16:51.070Z,12.90
2019-05-14T09:19:19.592Z,13.50
2019-05-14T09:22:09.358Z,13.60
2019-05-14T09:24:39.435Z,13.30
2019-05-14T09:27:10.276Z,13.80
2019-05-14T09:29:50.502Z,14.70
2019-05-14T09:32:24.755Z,14.90
2019-05-14T09:34:54.711Z,13.80
2019-05-14T09:37:28.887Z,13.40
2019-05-14T09:39:58.500Z,14.10
2019-05-14T09:42:29.220Z,14.80
2019-05-14T09:45:10.787Z,15.70
2019-05-14T09:47:38.790Z,15.10
2019-05-14T09:50:22.179Z,15.00
2019-05-14T09:52:42.377Z,14.50
2019-05-14T09:55:12.930Z,13.80
2019-05-14T09:57:42.810Z,14.20
2019-05-14T10:00:14.659Z,14.20
2019-05-14T10:02:45.127Z,14.70
2019-05-14T10:05:19.448Z,13.80
2019-05-14T10:07:49.816Z,14.00
2019-05-14T10:10:21.444Z,13.10
2019-05-14T10:12:56.300Z,13.20
2019-05-14T10:15:24.295Z,13.50
2019-05-14T10:17:55.269Z,13.20
2019-05-14T10:20:39.498Z,12.90
2019-05-14T10:23:02.161Z,13.30
2019-05-14T10:25:31.846Z,13.90
2019-05-14T10:28:01.915Z,13.30
2019-05-14T10:30:32.794Z,13.20
2019-05-14T10:33:09.460Z,13.70
2019-05-14T10:35:34.406Z,14.00
2019-05-14T10:38:04.704Z,14.10
2019-05-14T10:40:38.217Z,13.90
2019-05-14T10:43:09.187Z,13.80
2019-05-14T10:45:38.970Z,14.20
2019-05-14T10:48:10.672Z,14.60
2019-05-14T10:50:55.703Z,15.00
2019-05-14T10:53:13.731Z,14.60
2019-05-14T10:55:43.420Z,14.60
2019-05-14T10:58:13.755Z,15.20
2019-05-14T11:00:44.184Z,15.90
2019-05-14T11:03:14.571Z,14.60
2019-05-14T11:05:44.593Z,14.30
2019-05-14T11:08:14.633Z,14.30
2019-05-14T11:10:44.247Z,14.40
2019-05-14T11:13:14.151Z,13.40
2019-05-14T11:15:44.075Z,13.80
2019-05-14T11:18:13.885Z,14.00
2019-05-14T11:20:44.562Z,13.90
2019-05-14T11:23:18.288Z,13.50
2019-05-14T11:25:48.724Z,13.50
2019-05-14T11:28:19.139Z,14.10
2019-05-14T11:30:49.651Z,13.80
2019-05-14T11:33:20.842Z,14.30
2019-05-14T11:35:50.568Z,14.20
2019-05-14T11:38:29.778Z,14.20
2019-05-14T11:40:52.034Z,14.70
2019-05-14T11:43:21.710Z,14.20
2019-05-14T11:45:51.766Z,13.90
2019-05-14T11:48:22.996Z,13.70
2019-05-14T11:50:52.876Z,13.70
2019-05-14T11:53:22.579Z,14.00
2019-05-14T11:55:53.707Z,13.60
2019-05-14T11:58:23.724Z,13.60
2019-05-14T12:00:55.090Z,13.80
2019-05-14T12:03:25.183Z,13.70
2019-05-14T12:05:55.278Z,14.00
2019-05-14T12:08:54.825Z,13.90
2019-05-14T12:11:24.990Z,14.20
2019-05-14T12:13:55.088Z,14.30
2019-05-14T12:16:25.427Z,14.00
2019-05-14T12:18:58.844Z,14.00
2019-05-14T12:21:30.318Z,13.90
2019-05-14T12:24:04.645Z,13.90
2019-05-14T12:26:32.530Z,13.80
2019-05-14T12:29:02.656Z,13.80
2019-05-14T12:31:32.868Z,14.20
2019-05-14T12:34:04.461Z,14.60
2019-05-14T12:36:39.913Z,14.90
2019-05-14T12:39:12.378Z,14.20
2019-05-14T12:41:53.886Z,14.20
2019-05-14T12:44:29.119Z,13.90
2019-05-14T12:46:59.709Z,13.50
2019-05-14T12:49:51.780Z,13.50
2019-05-14T12:52:25.857Z,14.00
2019-05-14T12:55:02.547Z,14.20
2019-05-14T12:57:32.704Z,14.40
2019-05-14T13:00:03.140Z,14.50
2019-05-14T13:02:35.848Z,14.50
2019-05-14T13:05:08.934Z,14.90
2019-05-14T13:07:41.765Z,15.20
2019-05-14T13:10:11.327Z,15.00
2019-05-14T13:12:41.349Z,15.00
2019-05-14T13:15:11.953Z,15.50
2019-05-14T13:17:43.011Z,15.70
2019-05-14T13:20:14.173Z,15.10
2019-05-14T13:22:46.562Z,14.60
2019-05-14T13:25:30.311Z,14.40
2019-05-14T13:27:59.510Z,14.30
2019-05-14T13:30:33.177Z,14.80
2019-05-14T13:33:03.916Z,14.90
2019-05-14T13:35:39.296Z,15.40
2019-05-14T13:38:14.464Z,15.30
2019-05-14T13:40:44.260Z,14.70
2019-05-14T13:43:18.689Z,14.50
2019-05-14T13:45:53.056Z,14.30
2019-05-14T13:48:24.539Z,14.50
2019-05-14T13:50:58.097Z,14.80
2019-05-14T13:53:29.554Z,14.90
2019-05-14T13:56:09.043Z,15.20
2019-05-14T13:58:38.779Z,15.10
2019-05-14T14:01:09.974Z,14.80
2019-05-14T14:03:47.798Z,14.80
2019-05-14T14:06:12.556Z,15.20
2019-05-14T14:08:48.822Z,15.20
2019-05-14T14:11:19.391Z,15.10
2019-05-14T14:13:49.665Z,14.70
2019-05-14T14:16:19.973Z,14.40
2019-05-14T14:18:50.410Z,15.00
2019-05-14T14:21:20.226Z,15.20
2019-05-14T14:23:50.011Z,15.50
2019-05-14T14:26:19.824Z,15.10
2019-05-14T14:28:51.150Z,15.20
2019-05-14T14:31:22.183Z,15.00
2019-05-14T14:33:52.165Z,14.90
2019-05-14T14:36:23.144Z,14.80
2019-05-14T14:41:21.894Z,15.20
2019-05-14T14:43:54.532Z,15.10
2019-05-14T14:46:24.944Z,15.30
2019-05-14T14:48:57.760Z,15.30
2019-05-14T14:51:28.507Z,15.10
2019-05-14T14:54:02.580Z,15.50
2019-05-14T14:56:29.396Z,15.20
2019-05-14T14:58:59.412Z,15.00
2019-05-14T15:01:30.289Z,15.10
2019-05-14T15:04:01.244Z,15.30
2019-05-14T15:06:30.965Z,15.10
2019-05-14T15:09:00.854Z,15.00
2019-05-14T15:11:30.606Z,15.00
2019-05-14T15:14:00.554Z,15.00
2019-05-14T15:16:30.574Z,15.10
2019-05-14T15:19:00.479Z,15.20
2019-05-14T15:21:30.293Z,15.20
2019-05-14T15:24:10.012Z,15.10
2019-05-14T15:26:31.812Z,15.10
2019-05-14T15:29:01.807Z,15.20
2019-05-14T15:31:31.538Z,15.10
2019-05-14T15:34:01.323Z,15.40
2019-05-14T15:36:33.487Z,15.70
2019-05-14T15:39:05.986Z,15.70
2019-05-14T15:41:35.727Z,15.40
2019-05-14T15:44:08.826Z,15.30
2019-05-14T15:46:41.659Z,15.10
2019-05-14T15:49:10.628Z,15.00
2019-05-14T15:51:40.276Z,15.00
2019-05-14T15:54:34.462Z,15.10
2019-05-14T15:56:42.655Z,15.10
2019-05-14T15:59:12.381Z,15.10
2019-05-14T16:01:42.142Z,15.00
2019-05-14T16:04:11.918Z,14.90
2019-05-14T16:06:42.037Z,14.80
2019-05-14T16:09:11.846Z,14.90
2019-05-14T16:11:41.616Z,14.50
2019-05-14T16:14:11.261Z,14.70
2019-05-14T16:16:40.973Z,14.60
2019-05-14T16:19:10.655Z,14.60
2019-05-14T16:21:41.674Z,14.60
2019-05-14T16:24:12.821Z,14.50
2019-05-14T16:26:42.621Z,14.70
2019-05-14T16:29:12.364Z,14.60
2019-05-14T16:31:43.841Z,14.60
2019-05-14T16:34:13.646Z,14.80
2019-05-14T16:36:43.448Z,14.80
2019-05-14T16:39:13.132Z,14.70
2019-05-14T16:41:42.991Z,14.70
2019-05-14T16:44:12.663Z,14.50
2019-05-14T16:46:42.451Z,14.60
2019-05-14T16:49:12.376Z,14.70
2019-05-14T16:51:42.070Z,14.60
2019-05-14T16:54:11.788Z,14.50
2019-05-14T16:56:41.659Z,14.50
2019-05-14T16:59:11.448Z,14.70
2019-05-14T17:01:41.543Z,14.60
2019-05-14T17:04:11.278Z,14.70
2019-05-14T17:06:42.355Z,14.90
2019-05-14T17:09:12.170Z,14.80
2019-05-14T17:11:41.779Z,14.70
2019-05-14T17:14:11.500Z,14.70
2019-05-14T17:16:41.117Z,14.60
2019-05-14T17:19:10.933Z,14.60
2019-05-14T17:21:40.647Z,14.40
2019-05-14T17:24:10.422Z,14.40
2019-05-14T17:26:40.016Z,14.30
2019-05-14T17:29:10.052Z,14.20
2019-05-14T17:31:40.295Z,14.20
2019-05-14T17:34:10.115Z,14.20
2019-05-14T17:36:41.251Z,14.10
2019-05-14T17:39:11.116Z,14.10
2019-05-14T17:41:42.040Z,14.10
2019-05-14T17:44:12.355Z,14.00
2019-05-14T17:46:42.051Z,13.90
2019-05-14T17:49:11.696Z,13.80
2019-05-14T17:51:42.853Z,13.90
2019-05-14T17:54:12.681Z,13.90
2019-05-14T17:56:42.381Z,14.00
2019-05-14T17:59:12.047Z,14.00
2019-05-14T18:01:41.935Z,14.00
2019-05-14T18:04:11.740Z,13.90
2019-05-14T18:06:41.440Z,13.90
2019-05-14T18:09:12.910Z,13.90
2019-05-14T18:11:43.732Z,13.80
2019-05-14T18:14:15.176Z,13.80
2019-05-14T18:16:45.651Z,13.70
2019-05-14T18:19:15.252Z,13.70
2019-05-14T18:21:44.921Z,13.60
2019-05-14T18:24:14.571Z,13.60
2019-05-14T18:26:47.967Z,13.60
2019-05-14T18:29:18.901Z,13.60
2019-05-14T18:31:53.533Z,13.50
2019-05-14T18:34:21.648Z,13.50
2019-05-14T18:36:53.212Z,13.50
2019-05-14T18:39:23.151Z,13.50
2019-05-14T18:41:52.914Z,13.40
2019-05-14T18:44:22.777Z,13.40
2019-05-14T18:46:53.975Z,13.30
2019-05-14T18:49:25.235Z,13.20
2019-05-14T18:51:55.075Z,13.10
2019-05-14T18:54:24.806Z,13.10
2019-05-14T18:56:54.656Z,13.10
2019-05-14T18:59:24.307Z,13.00
2019-05-14T19:01:55.589Z,12.90
2019-05-14T19:04:25.355Z,12.90
2019-05-14T19:07:01.426Z,12.80
2019-05-14T19:09:31.263Z,12.80
2019-05-14T19:12:01.071Z,12.80
2019-05-14T19:14:32.447Z,12.80
2019-05-14T19:17:02.237Z,12.60
2019-05-14T19:19:34.059Z,12.60
2019-05-14T19:22:04.487Z,12.50
2019-05-14T19:24:34.301Z,12.40
2019-05-14T19:27:05.613Z,12.30
2019-05-14T19:29:35.330Z,12.20
2019-05-14T19:32:05.474Z,12.20
2019-05-14T19:34:35.225Z,12.10
2019-05-14T19:37:04.936Z,12.00
2019-05-14T19:39:35.066Z,12.00
2019-05-14T19:42:05.700Z,12.00
2019-05-14T19:44:35.511Z,11.90
2019-05-14T19:47:06.563Z,11.80
2019-05-14T19:49:38.365Z,11.80
2019-05-14T19:52:08.434Z,11.70
2019-05-14T19:54:38.561Z,11.60
2019-05-14T19:57:10.121Z,11.60
2019-05-14T19:59:40.009Z,11.60
2019-05-14T20:02:09.741Z,11.50
2019-05-14T20:04:42.422Z,11.40
2019-05-14T20:07:12.667Z,11.40
2019-05-14T20:09:42.899Z,11.40
2019-05-14T20:12:12.630Z,11.30
2019-05-14T20:14:49.006Z,11.30
2019-05-14T20:17:19.397Z,11.20
2019-05-14T20:19:51.817Z,11.10
2019-05-14T20:22:21.853Z,11.10
2019-05-14T20:24:52.271Z,11.00
2019-05-14T20:27:22.345Z,11.00
2019-05-14T20:29:55.162Z,11.00
2019-05-14T20:32:24.805Z,10.90
2019-05-14T20:34:58.029Z,10.90
2019-05-14T20:37:29.144Z,10.80
2019-05-14T20:39:59.166Z,10.70
2019-05-14T20:42:29.110Z,10.60
2019-05-14T20:44:59.290Z,10.60
2019-05-14T20:47:28.999Z,10.60
2019-05-14T20:50:00.098Z,10.50
2019-05-14T20:52:29.791Z,10.50
2019-05-14T20:55:02.364Z,10.50
2019-05-14T20:57:33.759Z,10.30
2019-05-14T21:00:03.849Z,10.30
2019-05-14T21:02:33.619Z,10.20
2019-05-14T21:05:05.281Z,10.20
2019-05-14T21:07:38.362Z,10.10
2019-05-14T21:10:10.921Z,10.00
2019-05-14T21:12:40.561Z,10.00
2019-05-14T21:15:12.766Z,10.00
2019-05-14T21:17:43.995Z,10.00
2019-05-14T21:20:14.314Z,9.90
2019-05-14T21:22:43.976Z,9.90
2019-05-14T21:25:14.125Z,9.90
2019-05-14T21:27:48.199Z,9.80
2019-05-14T21:30:15.639Z,9.70
2019-05-14T21:32:45.364Z,9.70
2019-05-14T21:35:15.911Z,9.60
2019-05-14T21:37:45.491Z,9.50
2019-05-14T21:40:15.243Z,9.50
2019-05-14T21:42:44.902Z,9.40
2019-05-14T21:45:17.989Z,9.40
2019-05-14T21:47:48.660Z,9.30
2019-05-14T21:50:19.016Z,9.40
2019-05-14T21:52:49.611Z,9.30
2019-05-14T21:55:20.881Z,9.20
2019-05-14T21:57:56.165Z,9.30
2019-05-14T22:00:30.425Z,9.10
2019-05-14T22:03:01.299Z,9.10
2019-05-14T22:05:31.725Z,9.00
2019-05-14T22:08:04.103Z,9.00
2019-05-14T22:10:34.151Z,9.10
2019-05-14T22:13:05.667Z,9.00
2019-05-14T22:15:35.556Z,8.90
2019-05-14T22:18:14.919Z,8.90
2019-05-14T22:20:38.891Z,8.90
2019-05-14T22:23:08.991Z,8.90
2019-05-14T22:25:39.728Z,8.80
2019-05-14T22:28:15.561Z,8.80
2019-05-14T22:30:43.185Z,8.70
2019-05-14T22:33:12.852Z,8.60
2019-05-14T22:35:44.208Z,8.60
2019-05-14T22:38:14.567Z,8.40
2019-05-14T22:40:44.867Z,8.50
2019-05-14T22:43:18.165Z,8.40
2019-05-14T22:45:48.140Z,8.50
2019-05-14T22:48:18.635Z,8.50
2019-05-14T22:50:48.737Z,8.50
2019-05-14T22:53:18.590Z,8.40
2019-05-14T22:55:49.110Z,8.40
2019-05-14T22:58:25.506Z,8.30
2019-05-14T23:01:06.954Z,8.20
2019-05-14T23:03:23.149Z,8.10
2019-05-14T23:05:52.795Z,8.10
2019-05-14T23:08:22.435Z,8.00
2019-05-14T23:10:52.096Z,8.00
2019-05-14T23:13:24.670Z,8.00
2019-05-14T23:15:54.343Z,8.00
2019-05-14T23:18:24.120Z,8.10
2019-05-14T23:20:55.298Z,8.00
2019-05-14T23:23:28.162Z,7.90
2019-05-14T23:25:58.941Z,7.80
2019-05-14T23:28:41.461Z,7.80
2019-05-14T23:31:01.890Z,7.80
2019-05-14T23:33:31.850Z,7.70
2019-05-14T23:36:01.723Z,7.60
2019-05-14T23:38:32.982Z,7.50
2019-05-14T23:41:03.255Z,7.40
2019-05-14T23:43:34.484Z,7.30
2019-05-14T23:46:04.384Z,7.20
2019-05-14T23:48:39.202Z,7.20
2019-05-14T23:51:08.806Z,7.10
2019-05-14T23:53:39.945Z,7.10
2019-05-14T23:56:10.364Z,7.00
2019-05-14T23:58:54.763Z,7.00
